sensor_id;sensor_type;location;lat;lon;timestamp;P1;durP1;ratioP1;P2;durP2;ratioP2
33094;SDS011;19459;53.044;8.910;2022-09-09T00:02:11;49.22;;;32.72;;
33094;SDS011;19459;53.044;8.910;2022-09-09T00:04:41;53.65;;;35.67;;
33094;SDS011;19459;53.044;8.910;2022-09-09T00:07:13;46.85;;;33.10;;
33094;SDS011;19459;53.044;8.910;2022-09-09T00:15:35;58.50;;;35.05;;
33094;SDS011;19459;53.044;8.910;2022-09-09T00:21:10;59.83;;;35.85;;
33094;SDS011;19459;53.044;8.910;2022-09-09T00:23:44;53.15;;;37.10;;
33094;SDS011;19459;53.044;8.910;2022-09-09T00:26:25;57.33;;;37.65;;
33094;SDS011;19459;53.044;8.910;2022-09-09T00:31:33;66.85;;;40.85;;
33094;SDS011;19459;53.044;8.910;2022-09-09T00:34:02;61.13;;;38.70;;
33094;SDS011;19459;53.044;8.910;2022-09-09T00:36:44;61.53;;;39.28;;
33094;SDS011;19459;53.044;8.910;2022-09-09T00:39:34;56.80;;;35.65;;
33094;SDS011;19459;53.044;8.910;2022-09-09T00:42:16;69.85;;;38.90;;
33094;SDS011;19459;53.044;8.910;2022-09-09T00:44:59;56.22;;;36.92;;
33094;SDS011;19459;53.044;8.910;2022-09-09T00:47:46;69.35;;;40.78;;
33094;SDS011;19459;53.044;8.910;2022-09-09T00:50:17;64.45;;;40.30;;
33094;SDS011;19459;53.044;8.910;2022-09-09T00:56:46;66.40;;;41.58;;
33094;SDS011;19459;53.044;8.910;2022-09-09T01:02:21;48.95;;;32.60;;
33094;SDS011;19459;53.044;8.910;2022-09-09T01:04:57;56.30;;;35.22;;
33094;SDS011;19459;53.044;8.910;2022-09-09T01:07:32;54.25;;;36.05;;
33094;SDS011;19459;53.044;8.910;2022-09-09T01:09:58;54.30;;;36.08;;
33094;SDS011;19459;53.044;8.910;2022-09-09T01:12:41;49.92;;;33.63;;
33094;SDS011;19459;53.044;8.910;2022-09-09T01:15:09;45.13;;;30.88;;
33094;SDS011;19459;53.044;8.910;2022-09-09T01:18:02;57.08;;;34.70;;
33094;SDS011;19459;53.044;8.910;2022-09-09T01:28:55;49.15;;;31.05;;
33094;SDS011;19459;53.044;8.910;2022-09-09T01:31:35;42.50;;;29.60;;
33094;SDS011;19459;53.044;8.910;2022-09-09T01:34:09;46.33;;;30.48;;
33094;SDS011;19459;53.044;8.910;2022-09-09T01:39:17;41.45;;;27.58;;
33094;SDS011;19459;53.044;8.910;2022-09-09T01:41:44;42.28;;;29.67;;
33094;SDS011;19459;53.044;8.910;2022-09-09T01:44:09;45.42;;;29.40;;
33094;SDS011;19459;53.044;8.910;2022-09-09T01:46:36;41.65;;;29.00;;
33094;SDS011;19459;53.044;8.910;2022-09-09T01:49:02;37.40;;;26.55;;
33094;SDS011;19459;53.044;8.910;2022-09-09T01:51:32;39.35;;;25.65;;
33094;SDS011;19459;53.044;8.910;2022-09-09T01:53:59;31.40;;;24.80;;
33094;SDS011;19459;53.044;8.910;2022-09-09T02:04:52;35.20;;;24.92;;
33094;SDS011;19459;53.044;8.910;2022-09-09T02:07:39;29.98;;;23.23;;
33094;SDS011;19459;53.044;8.910;2022-09-09T02:12:50;31.08;;;21.58;;
33094;SDS011;19459;53.044;8.910;2022-09-09T02:17:53;35.85;;;23.40;;
33094;SDS011;19459;53.044;8.910;2022-09-09T02:20:23;32.70;;;22.33;;
33094;SDS011;19459;53.044;8.910;2022-09-09T02:22:52;37.20;;;23.83;;
33094;SDS011;19459;53.044;8.910;2022-09-09T02:25:22;32.15;;;24.05;;
33094;SDS011;19459;53.044;8.910;2022-09-09T02:27:51;32.63;;;24.85;;
33094;SDS011;19459;53.044;8.910;2022-09-09T02:30:17;33.05;;;24.35;;
33094;SDS011;19459;53.044;8.910;2022-09-09T02:32:45;35.55;;;24.83;;
33094;SDS011;19459;53.044;8.910;2022-09-09T02:35:14;33.05;;;24.42;;
33094;SDS011;19459;53.044;8.910;2022-09-09T02:37:44;30.92;;;22.55;;
33094;SDS011;19459;53.044;8.910;2022-09-09T02:40:13;34.20;;;24.60;;
33094;SDS011;19459;53.044;8.910;2022-09-09T02:42:43;35.75;;;25.75;;
33094;SDS011;19459;53.044;8.910;2022-09-09T02:45:12;33.33;;;24.65;;
33094;SDS011;19459;53.044;8.910;2022-09-09T02:47:50;33.25;;;25.35;;
33094;SDS011;19459;53.044;8.910;2022-09-09T02:50:35;38.87;;;24.97;;
33094;SDS011;19459;53.044;8.910;2022-09-09T02:53:30;34.42;;;25.00;;
33094;SDS011;19459;53.044;8.910;2022-09-09T02:56:09;38.25;;;25.70;;
33094;SDS011;19459;53.044;8.910;2022-09-09T02:58:41;36.42;;;23.30;;
33094;SDS011;19459;53.044;8.910;2022-09-09T03:01:07;36.47;;;23.58;;
33094;SDS011;19459;53.044;8.910;2022-09-09T03:03:34;40.90;;;25.10;;
33094;SDS011;19459;53.044;8.910;2022-09-09T03:06:00;34.63;;;24.05;;
33094;SDS011;19459;53.044;8.910;2022-09-09T03:08:26;29.92;;;22.52;;
33094;SDS011;19459;53.044;8.910;2022-09-09T03:10:53;40.05;;;23.90;;
33094;SDS011;19459;53.044;8.910;2022-09-09T03:13:20;28.02;;;21.48;;
33094;SDS011;19459;53.044;8.910;2022-09-09T03:15:47;32.83;;;23.73;;
33094;SDS011;19459;53.044;8.910;2022-09-09T03:18:13;33.47;;;23.17;;
33094;SDS011;19459;53.044;8.910;2022-09-09T03:20:39;31.88;;;21.85;;
33094;SDS011;19459;53.044;8.910;2022-09-09T03:23:07;30.33;;;21.35;;
33094;SDS011;19459;53.044;8.910;2022-09-09T03:25:32;29.67;;;22.75;;
33094;SDS011;19459;53.044;8.910;2022-09-09T03:27:58;27.33;;;21.05;;
33094;SDS011;19459;53.044;8.910;2022-09-09T03:30:26;32.53;;;23.45;;
33094;SDS011;19459;53.044;8.910;2022-09-09T03:32:52;30.10;;;20.35;;
33094;SDS011;19459;53.044;8.910;2022-09-09T03:35:20;31.10;;;20.75;;
33094;SDS011;19459;53.044;8.910;2022-09-09T03:37:46;32.67;;;21.08;;
33094;SDS011;19459;53.044;8.910;2022-09-09T03:40:12;31.85;;;19.88;;
33094;SDS011;19459;53.044;8.910;2022-09-09T03:42:39;24.13;;;17.77;;
33094;SDS011;19459;53.044;8.910;2022-09-09T03:45:05;31.73;;;18.95;;
33094;SDS011;19459;53.044;8.910;2022-09-09T03:47:34;25.67;;;17.42;;
33094;SDS011;19459;53.044;8.910;2022-09-09T03:50:00;26.90;;;18.05;;
33094;SDS011;19459;53.044;8.910;2022-09-09T03:52:26;22.70;;;17.33;;
33094;SDS011;19459;53.044;8.910;2022-09-09T03:54:52;28.13;;;18.40;;
33094;SDS011;19459;53.044;8.910;2022-09-09T03:57:19;23.65;;;15.75;;
33094;SDS011;19459;53.044;8.910;2022-09-09T03:59:45;22.52;;;14.98;;
33094;SDS011;19459;53.044;8.910;2022-09-09T04:02:11;22.35;;;14.88;;
33094;SDS011;19459;53.044;8.910;2022-09-09T04:04:36;20.05;;;13.20;;
33094;SDS011;19459;53.044;8.910;2022-09-09T04:07:02;19.30;;;13.30;;
33094;SDS011;19459;53.044;8.910;2022-09-09T04:09:30;20.17;;;14.10;;
33094;SDS011;19459;53.044;8.910;2022-09-09T04:11:56;15.50;;;12.18;;
33094;SDS011;19459;53.044;8.910;2022-09-09T04:14:22;18.75;;;12.75;;
33094;SDS011;19459;53.044;8.910;2022-09-09T04:16:48;21.48;;;12.48;;
33094;SDS011;19459;53.044;8.910;2022-09-09T04:19:13;20.88;;;12.45;;
33094;SDS011;19459;53.044;8.910;2022-09-09T04:21:40;20.02;;;11.95;;
33094;SDS011;19459;53.044;8.910;2022-09-09T04:24:06;16.35;;;11.68;;
33094;SDS011;19459;53.044;8.910;2022-09-09T04:26:33;23.27;;;11.57;;
33094;SDS011;19459;53.044;8.910;2022-09-09T04:29:01;20.98;;;11.05;;
33094;SDS011;19459;53.044;8.910;2022-09-09T04:31:28;17.25;;;11.25;;
33094;SDS011;19459;53.044;8.910;2022-09-09T04:33:55;15.40;;;11.38;;
33094;SDS011;19459;53.044;8.910;2022-09-09T04:36:21;19.27;;;10.77;;
33094;SDS011;19459;53.044;8.910;2022-09-09T04:38:47;19.38;;;10.75;;
33094;SDS011;19459;53.044;8.910;2022-09-09T04:41:14;15.95;;;9.55;;
33094;SDS011;19459;53.044;8.910;2022-09-09T04:43:41;22.20;;;11.80;;
33094;SDS011;19459;53.044;8.910;2022-09-09T04:46:07;14.77;;;10.23;;
33094;SDS011;19459;53.044;8.910;2022-09-09T04:48:33;18.80;;;10.35;;
33094;SDS011;19459;53.044;8.910;2022-09-09T04:51:00;14.13;;;9.45;;
33094;SDS011;19459;53.044;8.910;2022-09-09T04:53:29;12.38;;;8.40;;
33094;SDS011;19459;53.044;8.910;2022-09-09T04:56:03;15.35;;;9.27;;
33094;SDS011;19459;53.044;8.910;2022-09-09T04:58:36;20.05;;;9.38;;
33094;SDS011;19459;53.044;8.910;2022-09-09T05:01:10;12.90;;;8.20;;
33094;SDS011;19459;53.044;8.910;2022-09-09T05:03:45;17.75;;;8.88;;
33094;SDS011;19459;53.044;8.910;2022-09-09T05:06:13;11.52;;;7.18;;
33094;SDS011;19459;53.044;8.910;2022-09-09T05:08:42;13.65;;;7.05;;
33094;SDS011;19459;53.044;8.910;2022-09-09T05:13:45;15.18;;;7.38;;
33094;SDS011;19459;53.044;8.910;2022-09-09T05:16:12;14.13;;;7.38;;
33094;SDS011;19459;53.044;8.910;2022-09-09T05:18:39;13.77;;;7.18;;
33094;SDS011;19459;53.044;8.910;2022-09-09T05:21:07;14.20;;;6.97;;
33094;SDS011;19459;53.044;8.910;2022-09-09T05:23:34;15.27;;;6.63;;
33094;SDS011;19459;53.044;8.910;2022-09-09T05:26:01;13.80;;;7.13;;
33094;SDS011;19459;53.044;8.910;2022-09-09T05:28:27;13.02;;;8.70;;
33094;SDS011;19459;53.044;8.910;2022-09-09T05:30:58;10.05;;;7.20;;
33094;SDS011;19459;53.044;8.910;2022-09-09T05:33:37;11.18;;;6.95;;
33094;SDS011;19459;53.044;8.910;2022-09-09T05:36:08;14.80;;;7.03;;
33094;SDS011;19459;53.044;8.910;2022-09-09T05:38:40;14.52;;;7.72;;
33094;SDS011;19459;53.044;8.910;2022-09-09T05:41:06;16.23;;;7.80;;
33094;SDS011;19459;53.044;8.910;2022-09-09T05:43:33;14.27;;;7.82;;
33094;SDS011;19459;53.044;8.910;2022-09-09T05:48:35;10.20;;;6.68;;
33094;SDS011;19459;53.044;8.910;2022-09-09T05:51:07;9.88;;;6.78;;
33094;SDS011;19459;53.044;8.910;2022-09-09T05:53:38;12.32;;;7.60;;
33094;SDS011;19459;53.044;8.910;2022-09-09T05:56:08;12.05;;;7.43;;
33094;SDS011;19459;53.044;8.910;2022-09-09T05:58:37;15.17;;;7.87;;
33094;SDS011;19459;53.044;8.910;2022-09-09T06:01:04;11.02;;;7.97;;
33094;SDS011;19459;53.044;8.910;2022-09-09T06:03:36;13.43;;;7.03;;
33094;SDS011;19459;53.044;8.910;2022-09-09T06:06:05;12.95;;;6.93;;
33094;SDS011;19459;53.044;8.910;2022-09-09T06:08:34;17.05;;;8.27;;
33094;SDS011;19459;53.044;8.910;2022-09-09T06:11:03;10.63;;;8.00;;
33094;SDS011;19459;53.044;8.910;2022-09-09T06:13:33;12.23;;;6.85;;
33094;SDS011;19459;53.044;8.910;2022-09-09T06:16:00;16.40;;;7.88;;
33094;SDS011;19459;53.044;8.910;2022-09-09T06:18:26;16.80;;;8.00;;
33094;SDS011;19459;53.044;8.910;2022-09-09T06:20:59;8.20;;;6.97;;
33094;SDS011;19459;53.044;8.910;2022-09-09T06:23:29;10.63;;;7.20;;
33094;SDS011;19459;53.044;8.910;2022-09-09T06:28:47;10.95;;;7.30;;
33094;SDS011;19459;53.044;8.910;2022-09-09T06:31:16;16.25;;;7.55;;
33094;SDS011;19459;53.044;8.910;2022-09-09T06:33:47;16.40;;;7.50;;
33094;SDS011;19459;53.044;8.910;2022-09-09T06:36:18;10.40;;;7.00;;
33094;SDS011;19459;53.044;8.910;2022-09-09T06:38:56;11.98;;;7.22;;
33094;SDS011;19459;53.044;8.910;2022-09-09T06:41:23;11.77;;;8.07;;
33094;SDS011;19459;53.044;8.910;2022-09-09T06:43:51;10.70;;;5.57;;
33094;SDS011;19459;53.044;8.910;2022-09-09T06:46:18;11.45;;;6.22;;
33094;SDS011;19459;53.044;8.910;2022-09-09T06:48:52;7.63;;;5.90;;
33094;SDS011;19459;53.044;8.910;2022-09-09T06:51:24;10.93;;;6.32;;
33094;SDS011;19459;53.044;8.910;2022-09-09T06:53:54;10.52;;;5.95;;
33094;SDS011;19459;53.044;8.910;2022-09-09T06:56:23;9.40;;;6.38;;
33094;SDS011;19459;53.044;8.910;2022-09-09T06:59:02;7.90;;;4.72;;
33094;SDS011;19459;53.044;8.910;2022-09-09T07:01:31;10.98;;;5.90;;
33094;SDS011;19459;53.044;8.910;2022-09-09T07:04:03;9.15;;;4.82;;
33094;SDS011;19459;53.044;8.910;2022-09-09T07:06:32;9.57;;;5.13;;
33094;SDS011;19459;53.044;8.910;2022-09-09T07:09:01;9.15;;;4.70;;
33094;SDS011;19459;53.044;8.910;2022-09-09T07:11:34;9.98;;;4.75;;
33094;SDS011;19459;53.044;8.910;2022-09-09T07:14:07;8.57;;;5.57;;
33094;SDS011;19459;53.044;8.910;2022-09-09T07:16:33;8.90;;;5.18;;
33094;SDS011;19459;53.044;8.910;2022-09-09T07:19:02;10.27;;;5.38;;
33094;SDS011;19459;53.044;8.910;2022-09-09T07:21:29;9.90;;;5.45;;
33094;SDS011;19459;53.044;8.910;2022-09-09T07:23:56;10.18;;;5.45;;
33094;SDS011;19459;53.044;8.910;2022-09-09T07:26:23;9.82;;;5.43;;
33094;SDS011;19459;53.044;8.910;2022-09-09T07:28:52;9.18;;;5.68;;
33094;SDS011;19459;53.044;8.910;2022-09-09T07:31:19;9.05;;;5.40;;
33094;SDS011;19459;53.044;8.910;2022-09-09T07:33:48;4.93;;;4.43;;
33094;SDS011;19459;53.044;8.910;2022-09-09T07:36:24;10.82;;;5.15;;
33094;SDS011;19459;53.044;8.910;2022-09-09T07:39:06;10.23;;;5.13;;
33094;SDS011;19459;53.044;8.910;2022-09-09T07:41:35;10.85;;;5.03;;
33094;SDS011;19459;53.044;8.910;2022-09-09T07:44:07;8.23;;;4.65;;
33094;SDS011;19459;53.044;8.910;2022-09-09T07:46:41;13.45;;;5.60;;
33094;SDS011;19459;53.044;8.910;2022-09-09T07:49:08;8.95;;;5.55;;
33094;SDS011;19459;53.044;8.910;2022-09-09T07:51:36;11.25;;;4.68;;
33094;SDS011;19459;53.044;8.910;2022-09-09T07:54:06;8.77;;;4.07;;
33094;SDS011;19459;53.044;8.910;2022-09-09T07:56:36;8.70;;;4.45;;
33094;SDS011;19459;53.044;8.910;2022-09-09T07:59:03;11.07;;;4.63;;
33094;SDS011;19459;53.044;8.910;2022-09-09T08:01:32;8.88;;;4.32;;
33094;SDS011;19459;53.044;8.910;2022-09-09T08:04:04;11.55;;;3.63;;
33094;SDS011;19459;53.044;8.910;2022-09-09T08:06:38;6.97;;;3.35;;
33094;SDS011;19459;53.044;8.910;2022-09-09T08:09:06;9.45;;;4.25;;
33094;SDS011;19459;53.044;8.910;2022-09-09T08:11:33;6.22;;;3.42;;
33094;SDS011;19459;53.044;8.910;2022-09-09T08:14:27;7.72;;;3.65;;
33094;SDS011;19459;53.044;8.910;2022-09-09T08:17:10;5.82;;;3.90;;
33094;SDS011;19459;53.044;8.910;2022-09-09T08:19:36;10.50;;;3.95;;
33094;SDS011;19459;53.044;8.910;2022-09-09T08:22:02;9.75;;;3.75;;
33094;SDS011;19459;53.044;8.910;2022-09-09T08:24:28;11.20;;;3.60;;
33094;SDS011;19459;53.044;8.910;2022-09-09T08:26:54;8.35;;;3.33;;
33094;SDS011;19459;53.044;8.910;2022-09-09T08:29:22;5.57;;;2.50;;
33094;SDS011;19459;53.044;8.910;2022-09-09T08:34:19;6.85;;;2.85;;
33094;SDS011;19459;53.044;8.910;2022-09-09T08:36:46;9.50;;;2.97;;
33094;SDS011;19459;53.044;8.910;2022-09-09T08:39:15;7.40;;;2.50;;
33094;SDS011;19459;53.044;8.910;2022-09-09T08:50:25;6.22;;;2.45;;
33094;SDS011;19459;53.044;8.910;2022-09-09T08:53:43;7.03;;;2.50;;
33094;SDS011;19459;53.044;8.910;2022-09-09T08:55:59;6.47;;;2.40;;
33094;SDS011;19459;53.044;8.910;2022-09-09T08:58:29;5.33;;;2.00;;
33094;SDS011;19459;53.044;8.910;2022-09-09T09:12:51;6.88;;;2.50;;
33094;SDS011;19459;53.044;8.910;2022-09-09T09:15:19;7.65;;;1.60;;
33094;SDS011;19459;53.044;8.910;2022-09-09T09:17:49;4.78;;;1.90;;
33094;SDS011;19459;53.044;8.910;2022-09-09T09:20:54;4.78;;;1.80;;
33094;SDS011;19459;53.044;8.910;2022-09-09T09:23:24;5.28;;;2.40;;
33094;SDS011;19459;53.044;8.910;2022-09-09T09:26:01;8.45;;;2.67;;
33094;SDS011;19459;53.044;8.910;2022-09-09T09:28:29;3.58;;;1.70;;
33094;SDS011;19459;53.044;8.910;2022-09-09T09:30:58;4.22;;;1.80;;
33094;SDS011;19459;53.044;8.910;2022-09-09T09:36:11;6.10;;;2.85;;
33094;SDS011;19459;53.044;8.910;2022-09-09T09:38:50;11.20;;;2.22;;
33094;SDS011;19459;53.044;8.910;2022-09-09T09:41:38;4.97;;;2.30;;
33094;SDS011;19459;53.044;8.910;2022-09-09T09:44:23;6.65;;;2.33;;
33094;SDS011;19459;53.044;8.910;2022-09-09T09:47:11;8.25;;;3.20;;
33094;SDS011;19459;53.044;8.910;2022-09-09T09:49:51;9.80;;;2.50;;
33094;SDS011;19459;53.044;8.910;2022-09-09T09:52:24;7.90;;;2.28;;
33094;SDS011;19459;53.044;8.910;2022-09-09T09:54:53;5.95;;;2.42;;
33094;SDS011;19459;53.044;8.910;2022-09-09T09:57:30;12.18;;;2.65;;
33094;SDS011;19459;53.044;8.910;2022-09-09T10:00:02;8.60;;;2.42;;
33094;SDS011;19459;53.044;8.910;2022-09-09T10:02:40;4.72;;;1.95;;
33094;SDS011;19459;53.044;8.910;2022-09-09T10:05:16;7.55;;;2.78;;
33094;SDS011;19459;53.044;8.910;2022-09-09T10:07:45;10.00;;;3.05;;
33094;SDS011;19459;53.044;8.910;2022-09-09T10:10:23;8.13;;;3.10;;
33094;SDS011;19459;53.044;8.910;2022-09-09T10:13:05;6.22;;;3.03;;
33094;SDS011;19459;53.044;8.910;2022-09-09T10:24:46;5.68;;;3.08;;
33094;SDS011;19459;53.044;8.910;2022-09-09T10:27:43;6.75;;;2.47;;
33094;SDS011;19459;53.044;8.910;2022-09-09T10:30:18;8.40;;;2.70;;
33094;SDS011;19459;53.044;8.910;2022-09-09T10:38:48;4.57;;;2.67;;
33094;SDS011;19459;53.044;8.910;2022-09-09T10:41:36;6.00;;;2.70;;
33094;SDS011;19459;53.044;8.910;2022-09-09T10:53:02;8.63;;;2.83;;
33094;SDS011;19459;53.044;8.910;2022-09-09T10:55:51;9.25;;;3.08;;
33094;SDS011;19459;53.044;8.910;2022-09-09T10:58:24;6.93;;;2.75;;
33094;SDS011;19459;53.044;8.910;2022-09-09T11:01:00;7.47;;;2.83;;
33094;SDS011;19459;53.044;8.910;2022-09-09T11:03:37;6.47;;;2.10;;
33094;SDS011;19459;53.044;8.910;2022-09-09T11:06:06;4.72;;;2.13;;
33094;SDS011;19459;53.044;8.910;2022-09-09T11:08:41;7.47;;;1.80;;
33094;SDS011;19459;53.044;8.910;2022-09-09T11:14:21;6.60;;;2.17;;
33094;SDS011;19459;53.044;8.910;2022-09-09T11:17:02;8.90;;;2.03;;
33094;SDS011;19459;53.044;8.910;2022-09-09T11:19:34;7.07;;;2.30;;
33094;SDS011;19459;53.044;8.910;2022-09-09T11:27:50;10.93;;;2.50;;
33094;SDS011;19459;53.044;8.910;2022-09-09T11:33:34;6.03;;;2.13;;
33094;SDS011;19459;53.044;8.910;2022-09-09T11:42:37;5.43;;;2.47;;
33094;SDS011;19459;53.044;8.910;2022-09-09T11:44:46;8.10;;;2.20;;
33094;SDS011;19459;53.044;8.910;2022-09-09T11:49:54;7.40;;;2.20;;
33094;SDS011;19459;53.044;8.910;2022-09-09T11:52:36;11.95;;;3.20;;
33094;SDS011;19459;53.044;8.910;2022-09-09T11:55:09;7.00;;;2.60;;
33094;SDS011;19459;53.044;8.910;2022-09-09T11:58:01;12.13;;;3.47;;
33094;SDS011;19459;53.044;8.910;2022-09-09T12:06:11;15.40;;;3.67;;
33094;SDS011;19459;53.044;8.910;2022-09-09T12:08:58;9.05;;;2.85;;
33094;SDS011;19459;53.044;8.910;2022-09-09T12:12:07;10.82;;;3.40;;
33094;SDS011;19459;53.044;8.910;2022-09-09T12:17:37;5.80;;;3.20;;
33094;SDS011;19459;53.044;8.910;2022-09-09T12:25:51;10.95;;;4.85;;
33094;SDS011;19459;53.044;8.910;2022-09-09T12:40:00;10.77;;;4.05;;
33094;SDS011;19459;53.044;8.910;2022-09-09T12:42:41;11.20;;;3.83;;
33094;SDS011;19459;53.044;8.910;2022-09-09T12:45:15;8.30;;;3.83;;
33094;SDS011;19459;53.044;8.910;2022-09-09T12:50:36;6.45;;;3.38;;
33094;SDS011;19459;53.044;8.910;2022-09-09T12:56:27;7.88;;;4.20;;
33094;SDS011;19459;53.044;8.910;2022-09-09T13:02:44;9.30;;;3.28;;
33094;SDS011;19459;53.044;8.910;2022-09-09T13:05:41;11.68;;;3.15;;
33094;SDS011;19459;53.044;8.910;2022-09-09T13:08:10;8.75;;;3.22;;
33094;SDS011;19459;53.044;8.910;2022-09-09T13:13:16;5.80;;;2.65;;
33094;SDS011;19459;53.044;8.910;2022-09-09T13:15:54;7.82;;;3.78;;
33094;SDS011;19459;53.044;8.910;2022-09-09T13:18:23;8.25;;;3.40;;
33094;SDS011;19459;53.044;8.910;2022-09-09T13:20:54;5.93;;;3.22;;
33094;SDS011;19459;53.044;8.910;2022-09-09T13:23:22;5.95;;;3.40;;
33094;SDS011;19459;53.044;8.910;2022-09-09T13:26:01;6.07;;;3.67;;
33094;SDS011;19459;53.044;8.910;2022-09-09T13:28:31;9.75;;;3.38;;
33094;SDS011;19459;53.044;8.910;2022-09-09T13:31:05;6.40;;;2.95;;
33094;SDS011;19459;53.044;8.910;2022-09-09T13:33:46;6.00;;;3.10;;
33094;SDS011;19459;53.044;8.910;2022-09-09T13:36:12;8.80;;;3.47;;
33094;SDS011;19459;53.044;8.910;2022-09-09T13:41:24;5.10;;;2.45;;
33094;SDS011;19459;53.044;8.910;2022-09-09T13:43:55;4.22;;;2.40;;
33094;SDS011;19459;53.044;8.910;2022-09-09T13:46:35;4.82;;;2.17;;
33094;SDS011;19459;53.044;8.910;2022-09-09T13:51:41;8.20;;;2.75;;
33094;SDS011;19459;53.044;8.910;2022-09-09T13:54:16;7.50;;;2.13;;
33094;SDS011;19459;53.044;8.910;2022-09-09T13:56:44;8.70;;;2.83;;
33094;SDS011;19459;53.044;8.910;2022-09-09T13:59:15;7.13;;;2.53;;
33094;SDS011;19459;53.044;8.910;2022-09-09T14:01:46;9.43;;;2.83;;
33094;SDS011;19459;53.044;8.910;2022-09-09T14:04:14;8.45;;;2.17;;
33094;SDS011;19459;53.044;8.910;2022-09-09T14:06:40;8.55;;;2.67;;
33094;SDS011;19459;53.044;8.910;2022-09-09T14:09:07;9.15;;;2.35;;
33094;SDS011;19459;53.044;8.910;2022-09-09T14:11:39;6.38;;;2.90;;
33094;SDS011;19459;53.044;8.910;2022-09-09T14:14:06;9.52;;;2.38;;
33094;SDS011;19459;53.044;8.910;2022-09-09T14:16:32;5.82;;;2.58;;
33094;SDS011;19459;53.044;8.910;2022-09-09T14:18:58;5.18;;;2.60;;
33094;SDS011;19459;53.044;8.910;2022-09-09T14:21:24;8.88;;;2.47;;
33094;SDS011;19459;53.044;8.910;2022-09-09T14:23:51;6.78;;;2.80;;
33094;SDS011;19459;53.044;8.910;2022-09-09T14:26:18;6.68;;;2.17;;
33094;SDS011;19459;53.044;8.910;2022-09-09T14:28:46;6.28;;;2.60;;
33094;SDS011;19459;53.044;8.910;2022-09-09T14:31:12;4.90;;;2.60;;
33094;SDS011;19459;53.044;8.910;2022-09-09T14:33:39;5.72;;;2.58;;
33094;SDS011;19459;53.044;8.910;2022-09-09T14:36:05;3.53;;;2.05;;
33094;SDS011;19459;53.044;8.910;2022-09-09T14:38:36;5.88;;;2.03;;
33094;SDS011;19459;53.044;8.910;2022-09-09T14:41:07;6.57;;;2.33;;
33094;SDS011;19459;53.044;8.910;2022-09-09T14:43:39;5.50;;;2.47;;
33094;SDS011;19459;53.044;8.910;2022-09-09T14:46:06;7.88;;;2.55;;
33094;SDS011;19459;53.044;8.910;2022-09-09T14:48:36;11.48;;;2.95;;
33094;SDS011;19459;53.044;8.910;2022-09-09T14:51:09;6.95;;;3.10;;
33094;SDS011;19459;53.044;8.910;2022-09-09T14:53:40;8.02;;;3.28;;
33094;SDS011;19459;53.044;8.910;2022-09-09T14:58:41;11.02;;;3.50;;
33094;SDS011;19459;53.044;8.910;2022-09-09T15:01:08;8.88;;;3.50;;
33094;SDS011;19459;53.044;8.910;2022-09-09T15:03:38;11.05;;;4.07;;
33094;SDS011;19459;53.044;8.910;2022-09-09T15:06:08;10.93;;;4.15;;
33094;SDS011;19459;53.044;8.910;2022-09-09T15:08:37;10.75;;;4.35;;
33094;SDS011;19459;53.044;8.910;2022-09-09T15:11:04;9.38;;;3.42;;
33094;SDS011;19459;53.044;8.910;2022-09-09T15:13:34;8.85;;;3.40;;
33094;SDS011;19459;53.044;8.910;2022-09-09T15:16:05;8.90;;;3.28;;
33094;SDS011;19459;53.044;8.910;2022-09-09T15:18:33;9.70;;;4.00;;
33094;SDS011;19459;53.044;8.910;2022-09-09T15:21:01;9.00;;;4.10;;
33094;SDS011;19459;53.044;8.910;2022-09-09T15:23:34;8.20;;;4.70;;
33094;SDS011;19459;53.044;8.910;2022-09-09T15:26:00;12.85;;;4.13;;
33094;SDS011;19459;53.044;8.910;2022-09-09T15:28:27;6.82;;;3.53;;
33094;SDS011;19459;53.044;8.910;2022-09-09T15:30:53;7.40;;;3.70;;
33094;SDS011;19459;53.044;8.910;2022-09-09T15:33:20;8.02;;;3.28;;
33094;SDS011;19459;53.044;8.910;2022-09-09T15:35:47;9.50;;;4.05;;
33094;SDS011;19459;53.044;8.910;2022-09-09T15:38:13;8.50;;;3.10;;
33094;SDS011;19459;53.044;8.910;2022-09-09T15:40:40;11.27;;;3.45;;
33094;SDS011;19459;53.044;8.910;2022-09-09T15:43:06;7.15;;;3.05;;
33094;SDS011;19459;53.044;8.910;2022-09-09T15:45:33;5.93;;;3.25;;
33094;SDS011;19459;53.044;8.910;2022-09-09T15:48:02;9.10;;;3.67;;
33094;SDS011;19459;53.044;8.910;2022-09-09T15:50:29;7.80;;;3.70;;
33094;SDS011;19459;53.044;8.910;2022-09-09T15:53:01;10.48;;;5.53;;
33094;SDS011;19459;53.044;8.910;2022-09-09T15:55:27;16.33;;;10.20;;
33094;SDS011;19459;53.044;8.910;2022-09-09T15:57:53;19.05;;;10.18;;
33094;SDS011;19459;53.044;8.910;2022-09-09T16:00:20;20.83;;;10.55;;
33094;SDS011;19459;53.044;8.910;2022-09-09T16:02:46;25.08;;;14.02;;
33094;SDS011;19459;53.044;8.910;2022-09-09T16:05:12;22.27;;;13.25;;
33094;SDS011;19459;53.044;8.910;2022-09-09T16:07:38;17.58;;;9.45;;
33094;SDS011;19459;53.044;8.910;2022-09-09T16:10:04;13.27;;;6.13;;
33094;SDS011;19459;53.044;8.910;2022-09-09T16:12:30;7.88;;;4.65;;
33094;SDS011;19459;53.044;8.910;2022-09-09T16:14:56;6.95;;;3.78;;
33094;SDS011;19459;53.044;8.910;2022-09-09T16:17:22;5.97;;;3.47;;
33094;SDS011;19459;53.044;8.910;2022-09-09T16:19:48;7.07;;;3.92;;
33094;SDS011;19459;53.044;8.910;2022-09-09T16:22:13;7.50;;;3.05;;
33094;SDS011;19459;53.044;8.910;2022-09-09T16:24:40;7.35;;;3.72;;
33094;SDS011;19459;53.044;8.910;2022-09-09T16:27:06;5.25;;;3.88;;
33094;SDS011;19459;53.044;8.910;2022-09-09T16:29:32;10.27;;;3.47;;
33094;SDS011;19459;53.044;8.910;2022-09-09T16:31:58;8.90;;;2.97;;
33094;SDS011;19459;53.044;8.910;2022-09-09T16:34:25;8.60;;;3.17;;
33094;SDS011;19459;53.044;8.910;2022-09-09T16:36:51;5.57;;;2.97;;
33094;SDS011;19459;53.044;8.910;2022-09-09T16:39:18;4.70;;;2.67;;
33094;SDS011;19459;53.044;8.910;2022-09-09T16:41:45;5.00;;;2.90;;
33094;SDS011;19459;53.044;8.910;2022-09-09T16:44:13;9.00;;;2.88;;
33094;SDS011;19459;53.044;8.910;2022-09-09T16:46:44;7.90;;;2.90;;
33094;SDS011;19459;53.044;8.910;2022-09-09T16:49:13;11.48;;;3.72;;
33094;SDS011;19459;53.044;8.910;2022-09-09T16:51:44;6.28;;;2.88;;
33094;SDS011;19459;53.044;8.910;2022-09-09T16:54:13;4.70;;;3.28;;
33094;SDS011;19459;53.044;8.910;2022-09-09T16:56:42;9.27;;;4.05;;
33094;SDS011;19459;53.044;8.910;2022-09-09T16:59:27;9.07;;;4.25;;
33094;SDS011;19459;53.044;8.910;2022-09-09T17:01:53;10.68;;;4.43;;
33094;SDS011;19459;53.044;8.910;2022-09-09T17:04:20;10.30;;;4.05;;
33094;SDS011;19459;53.044;8.910;2022-09-09T17:06:51;11.48;;;4.55;;
33094;SDS011;19459;53.044;8.910;2022-09-09T17:09:19;7.28;;;3.33;;
33094;SDS011;19459;53.044;8.910;2022-09-09T17:11:47;6.03;;;2.70;;
33094;SDS011;19459;53.044;8.910;2022-09-09T17:14:18;7.90;;;4.10;;
33094;SDS011;19459;53.044;8.910;2022-09-09T17:16:45;8.77;;;3.20;;
33094;SDS011;19459;53.044;8.910;2022-09-09T17:19:11;5.88;;;3.42;;
33094;SDS011;19459;53.044;8.910;2022-09-09T17:21:38;12.60;;;4.63;;
33094;SDS011;19459;53.044;8.910;2022-09-09T17:24:05;15.93;;;3.88;;
33094;SDS011;19459;53.044;8.910;2022-09-09T17:26:32;12.90;;;4.65;;
33094;SDS011;19459;53.044;8.910;2022-09-09T17:28:58;14.10;;;4.35;;
33094;SDS011;19459;53.044;8.910;2022-09-09T17:31:26;8.18;;;3.97;;
33094;SDS011;19459;53.044;8.910;2022-09-09T17:33:53;13.35;;;4.15;;
33094;SDS011;19459;53.044;8.910;2022-09-09T17:36:21;11.35;;;4.15;;
33094;SDS011;19459;53.044;8.910;2022-09-09T17:38:50;8.05;;;3.67;;
33094;SDS011;19459;53.044;8.910;2022-09-09T17:43:48;12.27;;;3.78;;
33094;SDS011;19459;53.044;8.910;2022-09-09T17:46:20;11.45;;;3.72;;
33094;SDS011;19459;53.044;8.910;2022-09-09T17:48:51;10.32;;;4.40;;